createdAt,value
2018-08-24T00:01:21.495Z,1.20
2018-08-24T00:03:49.678Z,1.40
2018-08-24T00:06:17.864Z,1.50
2018-08-24T00:08:46.064Z,1.50
2018-08-24T00:11:14.288Z,1.43
2018-08-24T00:13:42.529Z,1.53
2018-08-24T00:16:10.700Z,1.30
2018-08-24T00:18:38.843Z,1.30
2018-08-24T00:21:07.024Z,1.73
2018-08-24T00:23:35.249Z,1.20
2018-08-24T00:26:03.432Z,1.30
2018-08-24T00:28:31.625Z,1.47
2018-08-24T00:30:59.811Z,1.30
2018-08-24T00:33:28.006Z,1.40
2018-08-24T00:35:56.172Z,1.53
2018-08-24T00:38:24.379Z,1.30
2018-08-24T00:40:56.554Z,1.63
2018-08-24T00:43:25.745Z,1.50
2018-08-24T00:45:54.456Z,1.40
2018-08-24T00:48:22.839Z,1.30
2018-08-24T00:50:51.151Z,1.30
2018-08-24T00:53:19.372Z,1.23
2018-08-24T00:55:47.576Z,1.30
2018-08-24T00:58:15.772Z,0.90
2018-08-24T01:00:44.988Z,1.10
2018-08-24T01:03:14.419Z,0.67
2018-08-24T01:05:42.612Z,0.70
2018-08-24T01:08:10.827Z,0.50
2018-08-24T01:10:38.991Z,0.40
2018-08-24T01:13:12.554Z,0.40
2018-08-24T01:15:50.251Z,0.50
2018-08-24T01:18:20.240Z,0.40
2018-08-24T01:20:51.533Z,0.40
2018-08-24T01:23:23.184Z,0.50
2018-08-24T01:25:51.403Z,0.60
2018-08-24T01:28:20.114Z,0.60
2018-08-24T01:30:48.424Z,0.67
2018-08-24T01:33:17.200Z,0.50
2018-08-24T01:35:46.257Z,0.47
2018-08-24T01:38:14.445Z,0.50
2018-08-24T01:40:42.630Z,0.50
2018-08-24T01:43:11.094Z,0.90
2018-08-24T01:45:39.352Z,0.97
2018-08-24T01:48:14.168Z,0.80
2018-08-24T01:50:42.319Z,0.80
2018-08-24T01:53:10.528Z,0.80
2018-08-24T01:55:38.779Z,0.80
2018-08-24T01:58:06.980Z,0.80
2018-08-24T02:00:35.366Z,0.60
2018-08-24T02:03:03.560Z,0.60
2018-08-24T02:05:31.749Z,0.70
2018-08-24T02:07:59.983Z,0.80
2018-08-24T02:10:28.484Z,0.73
2018-08-24T02:13:02.355Z,0.70
2018-08-24T02:15:30.604Z,0.90
2018-08-24T02:18:04.247Z,0.90
2018-08-24T02:20:38.027Z,1.10
2018-08-24T02:23:13.587Z,0.63
2018-08-24T02:25:42.196Z,0.80
2018-08-24T02:28:10.372Z,0.60
2018-08-24T02:30:38.562Z,0.90
2018-08-24T02:33:06.744Z,0.77
2018-08-24T02:35:34.925Z,0.53
2018-08-24T02:38:03.103Z,0.60
2018-08-24T02:40:31.663Z,0.70
2018-08-24T02:42:59.835Z,0.73
2018-08-24T02:45:28.022Z,0.60
2018-08-24T02:47:56.278Z,0.80
2018-08-24T02:50:24.441Z,0.80
2018-08-24T02:52:52.696Z,0.70
2018-08-24T02:55:20.890Z,0.73
2018-08-24T02:57:49.112Z,0.80
2018-08-24T03:00:18.316Z,0.97
2018-08-24T03:02:46.525Z,1.10
2018-08-24T03:05:14.866Z,1.10
2018-08-24T03:07:43.048Z,1.00
2018-08-24T03:10:11.280Z,1.17
2018-08-24T03:12:39.463Z,0.87
2018-08-24T03:15:07.656Z,1.10
2018-08-24T03:17:41.489Z,1.40
2018-08-24T03:20:09.700Z,1.27
2018-08-24T03:22:37.897Z,1.30
2018-08-24T03:25:06.128Z,0.90
2018-08-24T03:27:34.342Z,1.10
2018-08-24T03:30:02.559Z,1.30
2018-08-24T03:32:30.899Z,1.50
2018-08-24T03:34:59.114Z,1.43
2018-08-24T03:37:27.365Z,1.23
2018-08-24T03:39:55.567Z,1.20
2018-08-24T03:42:23.713Z,1.13
2018-08-24T03:44:51.912Z,1.23
2018-08-24T03:47:20.115Z,1.05
2018-08-24T03:49:48.343Z,1.20
2018-08-24T03:52:16.633Z,1.00
2018-08-24T03:54:44.884Z,1.57
2018-08-24T03:57:13.068Z,1.47
2018-08-24T03:59:42.024Z,1.43
2018-08-24T04:02:11.911Z,1.00
2018-08-24T04:04:40.277Z,1.90
2018-08-24T04:07:08.431Z,1.23
2018-08-24T04:09:36.656Z,1.33
2018-08-24T04:12:04.883Z,1.50
2018-08-24T04:14:33.080Z,1.57
2018-08-24T04:17:06.698Z,1.23
2018-08-24T04:19:34.996Z,1.40
2018-08-24T04:22:03.126Z,1.50
2018-08-24T04:24:31.392Z,1.73
2018-08-24T04:26:59.639Z,1.67
2018-08-24T04:29:29.511Z,1.43
2018-08-24T04:31:57.708Z,1.47
2018-08-24T04:34:25.911Z,1.60
2018-08-24T04:36:54.129Z,1.77
2018-08-24T04:39:22.326Z,1.60
2018-08-24T04:41:50.482Z,2.30
2018-08-24T04:44:18.647Z,2.13
2018-08-24T04:46:46.839Z,2.03
2018-08-24T04:49:16.117Z,2.90
2018-08-24T04:51:44.332Z,2.93
2018-08-24T04:54:12.518Z,3.53
2018-08-24T04:56:40.732Z,2.63
2018-08-24T04:59:08.930Z,2.77
2018-08-24T05:01:37.116Z,3.03
2018-08-24T05:04:05.364Z,3.13
2018-08-24T05:06:33.560Z,2.80
2018-08-24T05:09:01.749Z,2.53
2018-08-24T05:11:30.005Z,2.90
2018-08-24T05:13:58.184Z,2.50
2018-08-24T05:16:26.384Z,2.60
2018-08-24T05:18:54.557Z,2.57
2018-08-24T05:21:22.781Z,2.90
2018-08-24T05:23:50.969Z,2.60
2018-08-24T05:26:19.139Z,2.60
2018-08-24T05:28:47.339Z,2.90
2018-08-24T05:31:15.580Z,2.83
2018-08-24T05:33:43.795Z,2.67
2018-08-24T05:36:12.068Z,2.67
2018-08-24T05:38:40.256Z,3.23
2018-08-24T05:41:08.460Z,3.27
2018-08-24T05:43:36.655Z,3.17
2018-08-24T05:46:04.872Z,2.87
2018-08-24T05:48:33.091Z,3.07
2018-08-24T05:51:01.329Z,3.40
2018-08-24T05:53:29.531Z,3.70
2018-08-24T05:55:57.724Z,3.20
2018-08-24T05:58:25.926Z,3.30
2018-08-24T06:00:54.179Z,2.97
2018-08-24T06:03:22.399Z,3.20
2018-08-24T06:05:55.920Z,3.47
2018-08-24T06:08:25.233Z,3.23
2018-08-24T06:10:53.436Z,3.70
2018-08-24T06:13:21.684Z,3.70
2018-08-24T06:15:50.800Z,3.60
2018-08-24T06:18:18.979Z,3.90
2018-08-24T06:20:47.272Z,3.27
2018-08-24T06:23:16.018Z,3.93
2018-08-24T06:25:44.300Z,3.90
2018-08-24T06:28:12.507Z,4.50
2018-08-24T06:30:40.722Z,3.60
2018-08-24T06:33:08.920Z,4.50
2018-08-24T06:35:37.153Z,3.73
2018-08-24T06:38:05.444Z,4.10
2018-08-24T06:40:33.656Z,4.43
2018-08-24T06:43:01.914Z,4.67
2018-08-24T06:45:30.100Z,4.67
2018-08-24T06:47:58.299Z,4.23
2018-08-24T06:50:26.514Z,4.77
2018-08-24T06:52:54.793Z,4.70
2018-08-24T06:55:22.981Z,5.10
2018-08-24T06:57:51.235Z,4.57
2018-08-24T07:00:25.023Z,4.43
2018-08-24T07:02:53.204Z,5.00
2018-08-24T07:05:21.411Z,4.57
2018-08-24T07:07:49.650Z,4.87
2018-08-24T07:10:17.909Z,4.43
2018-08-24T07:12:46.094Z,4.63
2018-08-24T07:15:14.299Z,5.03
2018-08-24T07:17:47.899Z,5.23
2018-08-24T07:20:16.126Z,4.70
2018-08-24T07:22:44.288Z,5.20
2018-08-24T07:25:12.538Z,4.90
2018-08-24T07:27:40.672Z,4.67
2018-08-24T07:30:08.931Z,5.00
2018-08-24T07:32:37.208Z,5.03
2018-08-24T07:35:05.468Z,5.07
2018-08-24T07:37:33.691Z,4.73
2018-08-24T07:40:01.905Z,4.63
2018-08-24T07:42:30.101Z,4.50
2018-08-24T07:44:58.260Z,4.87
2018-08-24T07:47:26.462Z,4.33
2018-08-24T07:49:54.821Z,4.77
2018-08-24T07:52:22.962Z,4.57
2018-08-24T07:54:51.153Z,4.87
2018-08-24T07:57:19.340Z,5.23
2018-08-24T07:59:47.722Z,4.67
2018-08-24T08:02:15.939Z,5.03
2018-08-24T08:04:44.123Z,4.90
2018-08-24T08:07:12.392Z,4.73
2018-08-24T08:09:40.904Z,5.07
2018-08-24T08:12:09.091Z,4.73
2018-08-24T08:14:37.556Z,4.50
2018-08-24T08:17:05.707Z,4.83
2018-08-24T08:19:33.906Z,4.93
2018-08-24T08:22:02.093Z,4.57
2018-08-24T08:24:30.277Z,4.60
2018-08-24T08:26:58.460Z,4.53
2018-08-24T08:29:32.925Z,4.53
2018-08-24T08:32:01.139Z,4.23
2018-08-24T08:34:29.381Z,4.00
2018-08-24T08:36:57.540Z,4.67
2018-08-24T08:39:25.794Z,4.03
2018-08-24T08:41:54.082Z,4.30
2018-08-24T08:44:22.243Z,4.60
2018-08-24T08:46:50.503Z,4.87
2018-08-24T08:49:18.703Z,4.33
2018-08-24T08:51:46.991Z,4.23
2018-08-24T08:54:15.133Z,4.13
2018-08-24T08:56:43.303Z,4.47
2018-08-24T08:59:11.790Z,4.23
2018-08-24T09:01:39.968Z,4.33
2018-08-24T09:04:08.148Z,4.50
2018-08-24T09:06:36.380Z,4.73
2018-08-24T09:09:06.283Z,4.00
2018-08-24T09:11:34.468Z,4.27
2018-08-24T09:14:02.668Z,4.57
2018-08-24T09:16:30.872Z,4.50
2018-08-24T09:19:04.606Z,3.80
2018-08-24T09:21:38.261Z,4.40
2018-08-24T09:24:12.010Z,4.10
2018-08-24T09:26:45.497Z,4.17
2018-08-24T09:29:19.330Z,4.63
2018-08-24T09:31:47.598Z,4.63
2018-08-24T09:34:15.763Z,3.93
2018-08-24T09:36:43.996Z,4.27
2018-08-24T09:39:12.224Z,3.90
2018-08-24T09:41:40.467Z,3.50
2018-08-24T09:44:08.617Z,3.77
2018-08-24T09:46:42.220Z,2.93
2018-08-24T09:49:15.879Z,3.40
2018-08-24T09:51:44.032Z,3.63
2018-08-24T09:54:12.264Z,3.70
2018-08-24T09:56:40.808Z,3.63
2018-08-24T09:59:09.000Z,3.00
2018-08-24T10:02:46.342Z,2.67
2018-08-24T10:05:19.951Z,2.80
2018-08-24T10:07:53.322Z,3.00
2018-08-24T10:10:21.538Z,2.70
2018-08-24T10:12:49.736Z,2.90
2018-08-24T10:15:17.988Z,2.47
2018-08-24T10:17:46.232Z,2.10
2018-08-24T10:20:14.463Z,2.00
2018-08-24T10:22:42.651Z,1.70
2018-08-24T10:25:10.883Z,1.90
2018-08-24T10:27:39.076Z,1.80
2018-08-24T10:30:08.157Z,2.33
2018-08-24T10:32:36.326Z,2.20
2018-08-24T10:35:04.524Z,2.33
2018-08-24T10:37:32.744Z,2.30
2018-08-24T10:40:00.924Z,2.60
2018-08-24T10:42:29.120Z,2.03
2018-08-24T10:44:57.316Z,2.67
2018-08-24T10:47:25.545Z,2.40
2018-08-24T10:49:53.708Z,2.20
2018-08-24T10:52:21.916Z,2.30
2018-08-24T10:54:50.134Z,2.30
2018-08-24T10:57:18.339Z,2.00
2018-08-24T10:59:47.519Z,1.77
2018-08-24T11:02:15.736Z,1.90
2018-08-24T11:04:43.921Z,2.00
2018-08-24T11:07:12.281Z,1.80
2018-08-24T11:09:40.471Z,1.83
2018-08-24T11:12:08.695Z,1.80
2018-08-24T11:14:36.892Z,1.70
2018-08-24T11:17:05.120Z,1.87
2018-08-24T11:19:33.299Z,2.13
2018-08-24T11:22:01.509Z,1.80
2018-08-24T11:24:29.737Z,1.63
2018-08-24T11:26:58.004Z,2.00
2018-08-24T11:29:27.601Z,2.20
2018-08-24T11:31:55.872Z,1.70
2018-08-24T11:34:24.067Z,1.60
2018-08-24T11:36:52.259Z,1.60
2018-08-24T11:39:20.490Z,1.83
2018-08-24T11:41:48.771Z,1.57
2018-08-24T11:44:16.909Z,1.40
2018-08-24T11:46:45.099Z,1.57
2018-08-24T11:49:13.376Z,1.63
2018-08-24T11:51:41.579Z,1.50
2018-08-24T11:54:09.837Z,1.70
2018-08-24T11:56:37.947Z,1.67
2018-08-24T11:59:08.546Z,1.50
2018-08-24T12:01:36.725Z,1.30
2018-08-24T12:04:04.938Z,1.53
2018-08-24T12:06:33.132Z,1.70
2018-08-24T12:09:01.323Z,1.67
2018-08-24T12:11:29.512Z,1.60
2018-08-24T12:13:57.771Z,1.30
2018-08-24T12:16:25.890Z,1.50
2018-08-24T12:18:54.097Z,1.63
2018-08-24T12:21:22.531Z,1.37
2018-08-24T12:23:57.090Z,1.47
2018-08-24T12:26:25.320Z,1.50
2018-08-24T12:28:53.497Z,1.60
2018-08-24T12:31:21.763Z,1.13
2018-08-24T12:33:49.951Z,1.57
2018-08-24T12:36:18.177Z,1.63
2018-08-24T12:38:46.373Z,1.30
2018-08-24T12:41:14.691Z,1.20
2018-08-24T12:43:42.893Z,1.37
2018-08-24T12:46:11.011Z,1.87
2018-08-24T12:48:39.235Z,1.50
2018-08-24T12:51:07.476Z,1.00
2018-08-24T12:53:36.335Z,1.20
2018-08-24T12:56:04.539Z,1.00
2018-08-24T12:58:32.752Z,1.13
2018-08-24T13:01:00.959Z,0.90
2018-08-24T13:03:29.124Z,0.80
2018-08-24T13:05:57.321Z,0.93
2018-08-24T13:08:25.513Z,1.03
2018-08-24T13:10:53.880Z,0.83
2018-08-24T13:13:22.093Z,0.90
2018-08-24T13:15:50.312Z,1.00
2018-08-24T13:18:18.544Z,0.90
2018-08-24T13:20:46.728Z,1.13
2018-08-24T13:23:14.911Z,0.80
2018-08-24T13:25:43.076Z,0.77
2018-08-24T13:28:11.315Z,0.90
2018-08-24T13:30:39.535Z,0.70
2018-08-24T13:33:07.783Z,0.73
2018-08-24T13:35:36.049Z,0.90
2018-08-24T13:38:04.318Z,0.80
2018-08-24T13:40:32.488Z,0.70
2018-08-24T13:43:00.717Z,0.90
2018-08-24T13:45:29.296Z,0.70
2018-08-24T13:47:57.747Z,0.90
2018-08-24T13:50:25.901Z,1.10
2018-08-24T13:52:54.124Z,0.80
2018-08-24T13:55:22.372Z,1.00
2018-08-24T13:57:50.572Z,0.80
2018-08-24T14:00:18.758Z,0.60
2018-08-24T14:02:46.987Z,1.00
2018-08-24T14:05:15.195Z,0.73
2018-08-24T14:07:43.351Z,0.70
2018-08-24T14:10:11.603Z,0.70
2018-08-24T14:12:39.828Z,1.10
2018-08-24T14:15:08.503Z,1.17
2018-08-24T14:17:36.695Z,0.80
2018-08-24T14:20:04.925Z,0.60
2018-08-24T14:22:33.137Z,1.10
2018-08-24T14:25:01.344Z,0.80
2018-08-24T14:27:29.571Z,0.80
2018-08-24T14:29:57.800Z,0.70
2018-08-24T14:32:25.984Z,0.80
2018-08-24T14:34:54.206Z,0.67
2018-08-24T14:37:22.401Z,0.70
2018-08-24T14:39:50.604Z,0.67
2018-08-24T14:42:18.791Z,0.67
2018-08-24T14:44:46.956Z,0.87
2018-08-24T14:47:15.154Z,0.90
2018-08-24T14:49:43.373Z,0.97
2018-08-24T14:52:12.430Z,1.10
2018-08-24T14:54:40.633Z,0.80
2018-08-24T14:57:08.812Z,1.10
2018-08-24T14:59:37.141Z,0.70
2018-08-24T15:02:05.616Z,0.80
2018-08-24T15:04:33.857Z,0.70
2018-08-24T15:07:02.002Z,1.00
2018-08-24T15:09:30.223Z,0.87
2018-08-24T15:11:58.440Z,1.00
2018-08-24T15:14:26.644Z,0.70
2018-08-24T15:16:54.881Z,1.00
2018-08-24T15:19:23.028Z,0.60
2018-08-24T15:21:51.330Z,0.67
2018-08-24T15:24:19.557Z,0.70
2018-08-24T15:26:47.756Z,0.77
2018-08-24T15:29:16.330Z,0.80
2018-08-24T15:31:44.623Z,0.70
2018-08-24T15:34:12.817Z,0.90
2018-08-24T15:36:41.012Z,0.50
2018-08-24T15:39:11.229Z,0.50
2018-08-24T15:41:39.764Z,0.90
2018-08-24T15:44:08.100Z,0.70
2018-08-24T15:46:36.311Z,0.63
2018-08-24T15:49:05.261Z,1.30
2018-08-24T15:51:33.419Z,0.77
2018-08-24T15:54:01.668Z,0.77
2018-08-24T15:56:29.911Z,0.80
2018-08-24T15:58:58.130Z,0.77
2018-08-24T16:01:26.384Z,0.63
2018-08-24T16:03:54.558Z,0.80
2018-08-24T16:06:22.775Z,0.80
2018-08-24T16:08:50.949Z,0.73
2018-08-24T16:11:19.172Z,0.80
2018-08-24T16:13:47.397Z,0.80
2018-08-24T16:16:15.552Z,0.90
2018-08-24T16:18:43.770Z,0.73
2018-08-24T16:21:11.927Z,0.67
2018-08-24T16:23:40.137Z,0.50
2018-08-24T16:26:12.605Z,0.67
2018-08-24T16:28:40.881Z,0.57
2018-08-24T16:31:09.130Z,0.63
2018-08-24T16:33:37.328Z,0.70
2018-08-24T16:36:05.524Z,0.90
2018-08-24T16:38:33.740Z,0.90
2018-08-24T16:41:01.910Z,1.00
2018-08-24T16:43:30.071Z,0.60
2018-08-24T16:45:58.370Z,0.70
2018-08-24T16:48:26.533Z,0.60
2018-08-24T16:50:54.804Z,0.73
2018-08-24T16:53:23.016Z,0.70
2018-08-24T16:55:51.192Z,1.17
2018-08-24T16:58:19.361Z,0.50
2018-08-24T17:00:47.570Z,1.10
2018-08-24T17:03:15.791Z,0.90
2018-08-24T17:05:43.965Z,0.60
2018-08-24T17:08:12.208Z,0.77
2018-08-24T17:10:40.399Z,0.87
2018-08-24T17:13:08.593Z,0.77
2018-08-24T17:15:36.858Z,1.10
2018-08-24T17:18:05.490Z,0.60
2018-08-24T17:20:33.675Z,0.97
2018-08-24T17:23:01.868Z,0.90
2018-08-24T17:25:30.125Z,0.90
2018-08-24T17:27:58.428Z,1.03
2018-08-24T17:30:26.614Z,0.77
2018-08-24T17:32:54.928Z,0.97
2018-08-24T17:35:23.214Z,0.70
2018-08-24T17:37:51.401Z,0.80
2018-08-24T17:40:19.603Z,0.80
2018-08-24T17:42:47.800Z,1.03
2018-08-24T17:45:15.952Z,0.90
2018-08-24T17:47:44.152Z,1.20
2018-08-24T17:50:12.362Z,0.93
2018-08-24T17:52:40.505Z,0.83
2018-08-24T17:55:08.700Z,0.80
2018-08-24T17:57:36.908Z,0.63
2018-08-24T18:00:05.162Z,0.70
2018-08-24T18:02:33.376Z,0.90
2018-08-24T18:05:01.611Z,1.30
2018-08-24T18:07:29.804Z,0.87
2018-08-24T18:09:58.032Z,0.90
2018-08-24T18:12:26.227Z,0.80
2018-08-24T18:14:54.532Z,1.10
2018-08-24T18:17:22.614Z,1.13
2018-08-24T18:19:50.889Z,1.17
2018-08-24T18:22:19.043Z,0.70
2018-08-24T18:24:47.240Z,1.00
2018-08-24T18:27:15.425Z,0.80
2018-08-24T18:29:44.062Z,0.77
2018-08-24T18:32:12.312Z,0.80
2018-08-24T18:34:40.504Z,0.70
2018-08-24T18:37:08.711Z,1.03
2018-08-24T18:39:36.925Z,1.57
2018-08-24T18:42:05.157Z,0.70
2018-08-24T18:44:33.385Z,1.00
2018-08-24T18:47:01.639Z,1.03
2018-08-24T18:49:29.807Z,1.10
2018-08-24T18:51:58.032Z,0.80
2018-08-24T18:54:26.237Z,1.00
2018-08-24T18:56:54.436Z,0.83
2018-08-24T18:59:23.667Z,1.07
2018-08-24T19:01:51.884Z,1.20
2018-08-24T19:04:20.051Z,0.80
2018-08-24T19:06:48.251Z,1.00
2018-08-24T19:09:16.453Z,0.90
2018-08-24T19:12:51.960Z,0.80
2018-08-24T19:15:20.148Z,0.60
2018-08-24T19:17:53.582Z,1.30
2018-08-24T19:20:27.188Z,0.80
2018-08-24T19:22:55.521Z,1.03
2018-08-24T19:25:23.739Z,0.93
2018-08-24T19:27:57.485Z,1.00
2018-08-24T19:30:31.113Z,0.90
2018-08-24T19:32:59.283Z,0.80
2018-08-24T19:35:27.485Z,1.30
2018-08-24T19:37:55.728Z,1.17
2018-08-24T19:41:28.889Z,0.90
2018-08-24T19:43:57.192Z,1.10
2018-08-24T19:46:25.421Z,0.97
2018-08-24T19:48:58.926Z,0.80
2018-08-24T19:51:27.139Z,0.90
2018-08-24T19:53:55.365Z,0.90
2018-08-24T19:56:23.551Z,1.00
2018-08-24T19:58:57.347Z,0.90
2018-08-24T20:01:25.518Z,0.87
2018-08-24T20:03:53.693Z,1.03
2018-08-24T20:06:27.416Z,0.90
2018-08-24T20:09:01.009Z,1.10
2018-08-24T20:11:29.278Z,0.73
2018-08-24T20:13:57.459Z,0.97
2018-08-24T20:16:31.172Z,1.00
2018-08-24T20:18:59.368Z,1.10
2018-08-24T20:21:27.558Z,1.07
2018-08-24T20:23:55.825Z,0.97
2018-08-24T20:26:23.974Z,0.83
2018-08-24T20:28:52.132Z,0.73
2018-08-24T20:31:20.340Z,1.10
2018-08-24T20:33:48.612Z,0.93
2018-08-24T20:36:16.748Z,0.90
2018-08-24T20:38:44.950Z,0.80
2018-08-24T20:41:13.324Z,1.17
2018-08-24T20:43:41.516Z,0.83
2018-08-24T20:46:09.722Z,0.80
2018-08-24T20:48:37.911Z,1.00
2018-08-24T20:51:06.077Z,0.70
2018-08-24T20:53:34.300Z,0.67
2018-08-24T20:56:02.539Z,1.00
2018-08-24T20:58:30.760Z,0.90
2018-08-24T21:00:58.979Z,0.80
2018-08-24T21:03:27.142Z,0.70
2018-08-24T21:05:55.431Z,0.87
2018-08-24T21:08:23.506Z,0.80
2018-08-24T21:10:51.705Z,0.93
2018-08-24T21:13:19.898Z,0.70
2018-08-24T21:15:48.100Z,0.80
2018-08-24T21:18:16.328Z,0.70
2018-08-24T21:20:44.583Z,0.77
2018-08-24T21:23:12.808Z,0.67
2018-08-24T21:25:41.011Z,1.20
2018-08-24T21:28:09.264Z,0.97
2018-08-24T21:30:37.446Z,0.73
2018-08-24T21:33:05.742Z,0.73
2018-08-24T21:35:33.927Z,0.93
2018-08-24T21:38:02.148Z,0.87
2018-08-24T21:40:30.364Z,0.70
2018-08-24T21:42:58.561Z,1.10
2018-08-24T21:45:26.767Z,0.73
2018-08-24T21:47:54.996Z,0.97
2018-08-24T21:50:23.184Z,1.07
2018-08-24T21:52:51.392Z,0.90
2018-08-24T21:55:19.713Z,0.73
2018-08-24T21:57:47.958Z,0.70
2018-08-24T22:00:16.144Z,0.97
2018-08-24T22:02:45.197Z,0.90
2018-08-24T22:05:13.639Z,1.23
2018-08-24T22:07:41.806Z,1.00
2018-08-24T22:10:10.021Z,0.80
2018-08-24T22:12:38.207Z,0.77
2018-08-24T22:15:06.500Z,0.83
2018-08-24T22:17:34.718Z,0.60
2018-08-24T22:20:02.929Z,0.73
2018-08-24T22:22:31.192Z,0.87
2018-08-24T22:24:59.386Z,0.90
2018-08-24T22:27:27.591Z,1.10
2018-08-24T22:29:55.860Z,0.80
2018-08-24T22:32:24.026Z,0.80
2018-08-24T22:34:52.280Z,0.87
2018-08-24T22:37:20.518Z,1.17
2018-08-24T22:39:48.774Z,0.90
2018-08-24T22:42:16.959Z,0.70
2018-08-24T22:44:45.194Z,1.03
2018-08-24T22:47:13.359Z,0.60
2018-08-24T22:49:41.596Z,0.90
2018-08-24T22:52:09.965Z,0.80
2018-08-24T22:54:38.123Z,0.80
2018-08-24T22:57:06.369Z,0.90
2018-08-24T22:59:34.824Z,0.77
2018-08-24T23:02:03.066Z,0.80
2018-08-24T23:05:34.827Z,0.67
2018-08-24T23:08:03.088Z,0.70
2018-08-24T23:10:31.368Z,0.70
2018-08-24T23:12:59.513Z,0.80
2018-08-24T23:15:27.717Z,0.80
2018-08-24T23:17:55.904Z,1.03
2018-08-24T23:20:24.136Z,0.80
2018-08-24T23:22:52.394Z,0.93
2018-08-24T23:25:20.564Z,0.83
2018-08-24T23:27:48.836Z,1.10
2018-08-24T23:30:17.088Z,0.90
2018-08-24T23:32:45.278Z,1.00
2018-08-24T23:35:13.440Z,0.73
2018-08-24T23:37:41.623Z,0.90
2018-08-24T23:40:09.825Z,0.70
2018-08-24T23:42:38.148Z,0.83
2018-08-24T23:45:06.439Z,0.80
2018-08-24T23:47:34.724Z,0.90
2018-08-24T23:50:02.903Z,0.80
2018-08-24T23:52:31.099Z,0.77
2018-08-24T23:54:59.282Z,0.80
2018-08-24T23:57:27.549Z,0.80
2018-08-24T23:59:55.743Z,0.87
